createdAt,value
2022-08-05T00:00:43.122Z,16.63
2022-08-05T00:03:15.851Z,17.02
2022-08-05T00:06:04.959Z,17.52
2022-08-05T00:08:36.190Z,17.42
2022-08-05T00:11:07.505Z,16.95
2022-08-05T00:13:52.839Z,16.75
2022-08-05T00:16:36.235Z,16.02
2022-08-05T00:19:10.151Z,16.25
2022-08-05T00:21:38.736Z,17.08
2022-08-05T00:24:18.902Z,17.15
2022-08-05T00:26:53.253Z,17.25
2022-08-05T00:29:22.430Z,17.40
2022-08-05T00:32:13.508Z,16.30
2022-08-05T00:35:03.775Z,17.50
2022-08-05T00:37:50.355Z,16.30
2022-08-05T00:40:28.352Z,17.52
2022-08-05T00:42:59.061Z,16.57
2022-08-05T00:45:43.194Z,16.90
2022-08-05T00:48:14.007Z,17.85
2022-08-05T00:50:44.316Z,17.73
2022-08-05T00:53:45.267Z,18.08
2022-08-05T00:56:07.958Z,17.00
2022-08-05T00:58:37.163Z,18.17
2022-08-05T01:01:08.832Z,17.00
2022-08-05T01:03:38.329Z,17.58
2022-08-05T01:06:14.010Z,16.55
2022-08-05T01:08:44.809Z,17.67
2022-08-05T01:11:22.659Z,16.88
2022-08-05T01:14:01.489Z,17.20
2022-08-05T01:16:35.330Z,17.33
2022-08-05T01:19:14.178Z,17.55
2022-08-05T01:22:08.088Z,17.60
2022-08-05T01:24:52.953Z,17.23
2022-08-05T01:27:54.971Z,17.52
2022-08-05T01:30:34.279Z,17.58
2022-08-05T01:33:08.623Z,18.02
2022-08-05T01:35:51.855Z,18.02
2022-08-05T01:38:27.545Z,18.25
2022-08-05T01:41:01.436Z,17.92
2022-08-05T01:43:34.316Z,18.08
2022-08-05T01:46:06.919Z,18.77
2022-08-05T01:48:49.540Z,18.30
2022-08-05T01:51:19.946Z,18.25
2022-08-05T01:53:57.571Z,18.30
2022-08-05T01:58:10.213Z,19.17
2022-08-05T02:12:55.036Z,19.55
2022-08-05T02:15:31.170Z,17.90
2022-08-05T02:18:31.408Z,17.40
2022-08-05T02:20:58.699Z,18.65
2022-08-05T02:23:33.531Z,18.08
2022-08-05T02:26:04.564Z,19.40
2022-08-05T02:28:41.549Z,18.98
2022-08-05T02:31:14.810Z,18.52
2022-08-05T02:33:49.427Z,18.35
2022-08-05T02:36:27.923Z,18.85
2022-08-05T02:39:01.503Z,18.58
2022-08-05T02:41:42.976Z,19.25
2022-08-05T02:44:25.889Z,18.95
2022-08-05T02:47:00.428Z,19.42
2022-08-05T02:49:35.631Z,18.85
2022-08-05T02:52:06.726Z,18.42
2022-08-05T02:54:41.258Z,19.15
2022-08-05T02:58:11.881Z,19.55
2022-08-05T03:00:04.408Z,19.33
2022-08-05T03:02:36.379Z,18.33
2022-08-05T03:05:06.557Z,18.95
2022-08-05T03:08:00.612Z,18.55
2022-08-05T03:10:25.869Z,17.75
2022-08-05T03:12:55.210Z,18.95
2022-08-05T03:15:25.415Z,18.50
2022-08-05T03:17:57.829Z,18.02
2022-08-05T03:20:27.882Z,19.15
2022-08-05T03:22:58.163Z,19.30
2022-08-05T03:25:32.587Z,20.08
2022-08-05T03:28:18.483Z,21.05
2022-08-05T03:30:50.878Z,19.73
2022-08-05T03:33:19.812Z,18.98
2022-08-05T03:35:51.946Z,19.73
2022-08-05T03:38:32.811Z,20.00
2022-08-05T03:41:10.840Z,18.48
2022-08-05T03:44:09.702Z,19.17
2022-08-05T03:46:32.575Z,18.58
2022-08-05T03:49:01.834Z,19.45
2022-08-05T03:52:37.708Z,19.98
2022-08-05T03:55:34.061Z,19.13
2022-08-05T03:57:41.552Z,19.15
2022-08-05T04:00:15.611Z,18.83
2022-08-05T04:02:57.640Z,19.15
2022-08-05T04:05:34.083Z,18.50
2022-08-05T04:08:05.676Z,18.60
2022-08-05T04:10:43.753Z,18.90
2022-08-05T04:13:13.465Z,16.88
2022-08-05T04:16:02.774Z,16.80
2022-08-05T04:18:34.401Z,17.02
2022-08-05T04:21:04.157Z,17.40
2022-08-05T04:24:05.738Z,17.42
2022-08-05T04:26:42.853Z,17.10
2022-08-05T04:29:11.410Z,16.45
2022-08-05T04:31:40.522Z,16.50
2022-08-05T04:34:31.204Z,16.83
2022-08-05T04:36:59.104Z,16.13
2022-08-05T04:39:29.543Z,15.68
2022-08-05T04:41:58.077Z,16.05
2022-08-05T04:44:29.925Z,16.20
2022-08-05T04:47:09.677Z,15.23
2022-08-05T04:50:01.445Z,15.02
2022-08-05T04:52:34.978Z,14.70
2022-08-05T05:14:31.992Z,13.18
2022-08-05T05:17:03.378Z,12.85
2022-08-05T05:19:36.306Z,11.60
2022-08-05T05:22:23.797Z,12.02
2022-08-05T05:27:44.867Z,11.85
2022-08-05T05:30:31.495Z,11.02
2022-08-05T05:33:13.996Z,11.05
2022-08-05T05:38:27.518Z,9.75
2022-08-05T05:40:57.233Z,10.27
2022-08-05T05:43:54.202Z,10.27
2022-08-05T05:46:18.147Z,9.43
2022-08-05T05:48:48.969Z,9.18
2022-08-05T05:51:22.820Z,9.30
2022-08-05T05:53:57.226Z,8.52
2022-08-05T05:56:33.065Z,8.55
2022-08-05T05:59:05.443Z,8.25
2022-08-05T06:01:39.819Z,7.95
2022-08-05T06:04:11.871Z,7.95
2022-08-05T06:06:42.897Z,7.85
2022-08-05T06:09:16.736Z,8.32
2022-08-05T06:11:59.575Z,8.02
2022-08-05T06:14:30.692Z,7.93
2022-08-05T06:17:52.376Z,8.15
2022-08-05T06:19:56.882Z,8.43
2022-08-05T06:22:30.308Z,7.18
2022-08-05T06:25:59.408Z,7.60
2022-08-05T06:28:09.282Z,7.30
2022-08-05T06:33:11.422Z,7.50
2022-08-05T06:36:04.022Z,7.32
2022-08-05T06:38:37.149Z,7.30
2022-08-05T06:41:07.790Z,8.35
2022-08-05T06:43:58.580Z,7.97
2022-08-05T06:46:29.720Z,6.88
2022-08-05T06:49:01.670Z,7.65
2022-08-05T06:51:31.562Z,6.68
2022-08-05T06:54:01.746Z,7.05
2022-08-05T06:56:34.354Z,7.13
2022-08-05T06:59:03.901Z,6.63
2022-08-05T07:01:37.491Z,7.18
2022-08-05T07:04:13.997Z,7.32
2022-08-05T07:06:42.764Z,7.13
2022-08-05T07:09:11.287Z,6.20
2022-08-05T07:11:45.504Z,6.07
2022-08-05T07:14:35.888Z,6.30
2022-08-05T07:18:08.755Z,6.47
2022-08-05T07:22:45.778Z,5.70
2022-08-05T07:25:23.515Z,5.90
2022-08-05T07:30:40.759Z,5.95
2022-08-05T07:33:16.479Z,5.88
2022-08-05T07:36:05.386Z,6.32
2022-08-05T07:38:42.896Z,6.28
2022-08-05T07:42:07.698Z,6.45
2022-08-05T07:44:06.613Z,7.05
2022-08-05T07:46:48.310Z,6.10
2022-08-05T07:49:18.779Z,6.63
2022-08-05T07:51:53.520Z,6.13
2022-08-05T07:54:31.639Z,6.13
2022-08-05T07:57:17.815Z,6.35
2022-08-05T07:59:55.339Z,6.10
2022-08-05T08:02:30.797Z,6.57
2022-08-05T08:05:03.300Z,6.10
2022-08-05T08:07:39.573Z,6.47
2022-08-05T08:10:23.260Z,6.55
2022-08-05T08:12:54.865Z,6.97
2022-08-05T08:16:34.352Z,6.10
2022-08-05T08:18:15.847Z,5.70
2022-08-05T08:21:02.081Z,6.03
2022-08-05T08:24:01.605Z,6.07
2022-08-05T08:26:26.591Z,5.85
2022-08-05T08:29:02.361Z,6.10
2022-08-05T08:31:47.352Z,6.35
2022-08-05T08:34:18.717Z,5.80
2022-08-05T08:37:05.336Z,5.53
2022-08-05T08:39:37.627Z,5.60
2022-08-05T08:42:32.313Z,5.47
2022-08-05T08:45:18.599Z,5.72
2022-08-05T08:48:06.848Z,5.85
2022-08-05T08:51:07.510Z,6.20
2022-08-05T08:53:30.413Z,6.05
2022-08-05T08:56:06.220Z,6.18
2022-08-05T08:58:37.660Z,5.60
2022-08-05T09:01:16.569Z,5.82
2022-08-05T09:06:50.000Z,6.03
2022-08-05T09:09:20.318Z,5.82
2022-08-05T09:11:55.293Z,5.85
2022-08-05T09:14:57.982Z,5.55
2022-08-05T09:17:42.768Z,6.13
2022-08-05T09:20:09.059Z,5.90
2022-08-05T09:23:18.887Z,5.70
2022-08-05T09:26:02.611Z,6.13
2022-08-05T09:28:53.246Z,6.20
2022-08-05T09:32:42.167Z,5.68
2022-08-05T09:37:02.791Z,5.95
2022-08-05T09:39:52.122Z,6.05
2022-08-05T09:42:28.463Z,5.85
2022-08-05T09:46:05.301Z,5.63
2022-08-05T09:47:58.325Z,6.38
2022-08-05T09:50:38.599Z,6.20
2022-08-05T09:53:25.828Z,5.97
2022-08-05T09:56:04.500Z,6.10
2022-08-05T09:58:43.847Z,5.50
2022-08-05T10:01:32.159Z,5.88
2022-08-05T10:04:11.818Z,6.03
2022-08-05T10:07:21.067Z,6.43
2022-08-05T10:10:28.108Z,6.10
2022-08-05T10:13:16.363Z,5.93
2022-08-05T10:15:47.384Z,5.78
2022-08-05T10:18:22.690Z,6.15
2022-08-05T10:21:16.619Z,5.90
2022-08-05T10:23:59.329Z,5.60
2022-08-05T10:26:32.434Z,5.80
2022-08-05T10:29:02.842Z,5.78
2022-08-05T10:32:54.150Z,5.90
2022-08-05T10:34:25.790Z,5.75
2022-08-05T10:37:00.618Z,5.78
2022-08-05T10:40:03.729Z,5.78
2022-08-05T10:42:33.934Z,6.03
2022-08-05T10:45:20.843Z,5.68
2022-08-05T10:48:27.624Z,5.90
2022-08-05T10:51:22.394Z,6.03
2022-08-05T10:53:56.212Z,6.20
2022-08-05T10:56:30.352Z,5.88
2022-08-05T10:59:12.693Z,5.68
2022-08-05T11:05:00.345Z,5.18
2022-08-05T11:07:33.305Z,5.57
2022-08-05T11:10:29.193Z,4.30
2022-08-05T11:12:59.435Z,4.43
2022-08-05T11:16:00.254Z,4.30
2022-08-05T11:18:32.280Z,3.92
2022-08-05T11:21:31.707Z,4.00
2022-08-05T11:24:50.719Z,4.00
2022-08-05T11:27:50.991Z,4.95
2022-08-05T11:30:22.262Z,3.83
2022-08-05T11:33:43.815Z,4.68
2022-08-05T11:36:52.870Z,4.18
2022-08-05T11:40:00.329Z,4.28
2022-08-05T11:42:40.469Z,3.88
2022-08-05T11:45:26.883Z,4.22
2022-08-05T11:48:22.752Z,4.30
2022-08-05T11:51:44.604Z,4.38
2022-08-05T11:54:40.643Z,4.38
2022-08-05T11:57:25.977Z,4.90
2022-08-05T12:00:02.650Z,4.90
2022-08-05T12:02:40.669Z,4.45
2022-08-05T12:05:36.460Z,4.88
2022-08-05T12:08:32.688Z,5.70
2022-08-05T12:11:10.367Z,5.90
2022-08-05T12:14:10.299Z,5.05
2022-08-05T12:16:47.237Z,5.55
2022-08-05T12:20:26.217Z,4.82
2022-08-05T12:22:09.440Z,4.88
2022-08-05T12:24:43.599Z,4.82
2022-08-05T12:27:25.522Z,5.50
2022-08-05T12:30:03.247Z,5.57
2022-08-05T12:32:34.441Z,5.68
2022-08-05T12:35:08.708Z,5.88
2022-08-05T12:37:37.423Z,6.40
2022-08-05T12:40:11.294Z,6.10
2022-08-05T12:42:56.410Z,6.35
2022-08-05T12:45:42.640Z,6.30
2022-08-05T12:48:32.258Z,6.30
2022-08-05T12:51:21.729Z,6.00
2022-08-05T12:54:02.194Z,6.93
2022-08-05T12:56:35.207Z,6.90
2022-08-05T12:59:27.289Z,5.95
2022-08-05T13:02:07.539Z,6.63
2022-08-05T13:04:41.822Z,6.38
2022-08-05T13:07:55.986Z,5.88
2022-08-05T13:10:13.629Z,5.70
2022-08-05T13:12:51.023Z,6.25
2022-08-05T13:15:35.922Z,6.32
2022-08-05T13:18:20.869Z,6.43
2022-08-05T13:20:50.461Z,8.60
2022-08-05T13:23:22.629Z,5.72
2022-08-05T13:25:59.743Z,6.90
2022-08-05T13:28:32.043Z,5.57
2022-08-05T13:31:03.380Z,5.10
2022-08-05T13:34:24.241Z,5.72
2022-08-05T13:36:31.062Z,5.22
2022-08-05T13:38:59.585Z,5.50
2022-08-05T13:41:36.028Z,6.18
2022-08-05T13:44:06.379Z,5.45
2022-08-05T13:47:01.952Z,5.63
2022-08-05T13:49:24.803Z,5.72
2022-08-05T13:51:54.112Z,6.10
2022-08-05T13:54:25.160Z,5.80
2022-08-05T13:56:54.748Z,5.60
2022-08-05T13:59:26.991Z,6.10
2022-08-05T14:01:58.414Z,5.65
2022-08-05T14:04:49.134Z,5.70
2022-08-05T14:07:25.559Z,5.95
2022-08-05T14:10:08.844Z,5.95
2022-08-05T14:12:37.899Z,4.78
2022-08-05T14:16:05.116Z,4.82
2022-08-05T14:17:57.789Z,4.80
2022-08-05T14:20:30.892Z,5.72
2022-08-05T14:22:59.514Z,5.70
2022-08-05T14:25:30.049Z,5.13
2022-08-05T14:27:59.067Z,4.72
2022-08-05T14:30:28.386Z,5.20
2022-08-05T14:32:58.924Z,5.60
2022-08-05T14:35:37.192Z,5.28
2022-08-05T14:38:27.717Z,5.30
2022-08-05T14:41:05.925Z,5.20
2022-08-05T14:44:02.083Z,5.13
2022-08-05T14:46:28.732Z,4.82
2022-08-05T14:49:03.429Z,4.57
2022-08-05T14:51:35.802Z,4.80
2022-08-05T14:54:26.637Z,4.68
2022-08-05T14:56:54.980Z,4.55
2022-08-05T14:59:23.648Z,4.43
2022-08-05T15:01:53.779Z,4.03
2022-08-05T15:04:27.423Z,4.00
2022-08-05T15:06:57.614Z,3.78
2022-08-05T15:09:52.259Z,7.60
2022-08-05T15:12:17.248Z,3.90
2022-08-05T15:14:50.312Z,3.67
2022-08-05T15:17:46.397Z,4.20
2022-08-05T15:20:18.320Z,3.72
2022-08-05T15:22:54.222Z,3.90
2022-08-05T15:25:40.957Z,3.72
2022-08-05T15:28:16.425Z,4.15
2022-08-05T15:30:45.900Z,3.97
2022-08-05T15:34:04.060Z,4.25
2022-08-05T15:36:05.332Z,3.97
2022-08-05T15:38:41.763Z,4.00
2022-08-05T15:41:22.782Z,4.13
2022-08-05T15:43:54.893Z,4.10
2022-08-05T15:46:24.929Z,4.65
2022-08-05T15:48:58.853Z,4.50
2022-08-05T15:52:13.080Z,4.70
2022-08-05T15:54:34.404Z,4.03
2022-08-05T15:57:07.720Z,4.43
2022-08-05T15:59:38.074Z,4.20
2022-08-05T16:02:09.420Z,4.40
2022-08-05T16:04:38.627Z,4.57
2022-08-05T16:07:10.645Z,4.40
2022-08-05T16:09:41.495Z,6.22
2022-08-05T16:12:12.610Z,4.68
2022-08-05T16:14:41.428Z,3.97
2022-08-05T16:17:10.486Z,4.88
2022-08-05T16:20:05.264Z,4.82
2022-08-05T16:22:34.120Z,4.32
2022-08-05T16:25:07.963Z,5.13
2022-08-05T16:28:00.361Z,4.50
2022-08-05T16:30:31.004Z,4.80
2022-08-05T16:33:01.302Z,4.50
2022-08-05T16:35:32.597Z,5.00
2022-08-05T16:38:18.881Z,5.32
2022-08-05T16:40:55.774Z,4.93
2022-08-05T16:43:32.044Z,5.20
2022-08-05T16:46:04.125Z,5.00
2022-08-05T16:51:09.437Z,5.45
2022-08-05T16:54:05.727Z,5.78
2022-08-05T16:56:29.626Z,6.43
2022-08-05T16:59:00.762Z,5.78
2022-08-05T17:01:52.860Z,5.78
2022-08-05T17:04:19.007Z,7.45
2022-08-05T17:06:53.230Z,5.95
2022-08-05T17:09:23.213Z,6.50
2022-08-05T17:11:59.268Z,6.00
2022-08-05T17:14:37.343Z,13.75
2022-08-05T17:17:14.255Z,12.48
2022-08-05T17:19:46.287Z,6.72
2022-08-05T17:22:24.418Z,6.57
2022-08-05T17:24:56.831Z,6.97
2022-08-05T17:27:33.965Z,6.85
2022-08-05T17:30:11.919Z,7.10
2022-08-05T17:32:47.426Z,7.72
2022-08-05T17:35:20.926Z,7.32
2022-08-05T17:37:50.588Z,7.15
2022-08-05T17:40:22.676Z,7.07
2022-08-05T17:42:53.522Z,7.68
2022-08-05T17:45:37.958Z,7.40
2022-08-05T17:48:08.996Z,7.93
2022-08-05T17:50:37.614Z,7.63
2022-08-05T17:53:08.573Z,7.93
2022-08-05T17:55:39.881Z,8.43
2022-08-05T17:58:13.567Z,7.80
2022-08-05T18:00:50.983Z,7.88
2022-08-05T18:06:15.026Z,8.30
2022-08-05T18:08:52.462Z,7.93
2022-08-05T18:11:24.712Z,9.60
2022-08-05T18:14:04.339Z,8.45
2022-08-05T18:16:46.964Z,8.75
2022-08-05T18:19:23.195Z,8.25
2022-08-05T18:22:09.379Z,8.10
2022-08-05T18:24:40.166Z,8.70
2022-08-05T18:27:12.434Z,8.65
2022-08-05T18:29:41.510Z,8.15
2022-08-05T18:32:12.994Z,11.57
2022-08-05T18:34:43.017Z,8.55
2022-08-05T18:37:12.682Z,8.02
2022-08-05T18:41:50.993Z,12.45
2022-08-05T18:42:49.910Z,16.50
2022-08-05T18:45:20.910Z,8.07
2022-08-05T18:47:56.343Z,12.50
2022-08-05T18:50:46.401Z,10.20
2022-08-05T18:53:20.852Z,10.40
2022-08-05T18:55:54.132Z,8.05
2022-08-05T18:58:28.660Z,13.35
2022-08-05T19:01:00.179Z,11.32
2022-08-05T19:03:55.685Z,9.20
2022-08-05T19:06:37.259Z,12.60
2022-08-05T19:09:10.235Z,9.40
2022-08-05T19:12:01.003Z,12.25
2022-08-05T19:14:52.260Z,10.05
2022-08-05T19:17:17.395Z,9.65
2022-08-05T19:19:49.913Z,9.55
2022-08-05T19:22:18.858Z,10.32
2022-08-05T19:25:00.813Z,10.30
2022-08-05T19:27:32.738Z,9.93
2022-08-05T19:30:03.038Z,9.43
2022-08-05T19:32:33.315Z,9.57
2022-08-05T19:35:05.870Z,10.20
2022-08-05T19:37:47.413Z,9.52
2022-08-05T19:40:24.495Z,9.88
2022-08-05T19:43:04.542Z,10.38
2022-08-05T19:45:36.846Z,9.35
2022-08-05T19:48:06.427Z,12.07
2022-08-05T19:50:36.856Z,9.63
2022-08-05T19:53:09.282Z,10.25
2022-08-05T19:56:13.926Z,10.30
2022-08-05T19:58:30.061Z,10.60
2022-08-05T20:00:58.972Z,10.15
2022-08-05T20:03:40.833Z,10.77
2022-08-05T20:06:15.925Z,10.10
2022-08-05T20:08:59.838Z,10.45
2022-08-05T20:11:37.761Z,9.93
2022-08-05T20:14:12.037Z,10.48
2022-08-05T20:16:41.349Z,11.60
2022-08-05T20:19:11.967Z,10.88
2022-08-05T20:21:46.512Z,10.05
2022-08-05T20:24:16.081Z,10.55
2022-08-05T20:26:47.553Z,10.20
2022-08-05T20:29:26.560Z,11.13
2022-08-05T20:31:58.355Z,10.98
2022-08-05T20:34:28.419Z,11.48
2022-08-05T20:36:58.681Z,10.05
2022-08-05T20:39:35.539Z,10.40
2022-08-05T20:44:40.181Z,9.98
2022-08-05T20:47:10.073Z,10.85
2022-08-05T20:49:42.252Z,10.52
2022-08-05T20:52:15.475Z,10.15
2022-08-05T20:55:15.788Z,11.07
2022-08-05T21:00:40.808Z,10.75
2022-08-05T21:03:07.821Z,10.57
2022-08-05T21:05:53.771Z,11.38
2022-08-05T21:08:27.938Z,10.40
2022-08-05T21:11:11.906Z,10.82
2022-08-05T21:13:47.420Z,11.20
2022-08-05T21:16:29.377Z,10.55
2022-08-05T21:19:00.912Z,10.40
2022-08-05T21:21:39.585Z,10.27
2022-08-05T21:24:15.824Z,10.35
2022-08-05T21:26:53.335Z,10.27
2022-08-05T21:29:26.545Z,9.98
2022-08-05T21:32:00.244Z,10.52
2022-08-05T21:34:29.097Z,10.95
2022-08-05T21:37:00.641Z,10.50
2022-08-05T21:39:34.451Z,10.60
2022-08-05T21:42:03.407Z,12.43
2022-08-05T21:44:32.047Z,10.32
2022-08-05T21:47:01.504Z,10.68
2022-08-05T21:49:56.861Z,11.07
2022-08-05T21:52:26.803Z,13.05
2022-08-05T21:55:06.450Z,11.38
2022-08-05T21:57:36.215Z,11.23
2022-08-05T22:00:10.798Z,11.15
2022-08-05T22:02:41.652Z,10.82
2022-08-05T22:05:11.822Z,9.85
2022-08-05T22:07:59.161Z,11.30
2022-08-05T22:10:32.212Z,12.00
2022-08-05T22:13:58.812Z,11.60
2022-08-05T22:15:56.641Z,11.20
2022-08-05T22:18:30.658Z,10.85
2022-08-05T22:21:00.605Z,11.40
2022-08-05T22:24:02.650Z,11.50
2022-08-05T22:29:26.140Z,10.80
2022-08-05T22:31:59.464Z,11.27
2022-08-05T22:34:31.935Z,10.65
2022-08-05T22:37:03.941Z,10.77
2022-08-05T22:39:34.810Z,11.15
2022-08-05T22:42:12.553Z,11.07
2022-08-05T22:44:53.595Z,13.10
2022-08-05T22:47:29.772Z,16.13
2022-08-05T22:50:20.111Z,11.23
2022-08-05T22:52:50.135Z,14.95
2022-08-05T22:55:21.306Z,11.30
2022-08-05T22:57:53.328Z,11.77
2022-08-05T23:00:23.481Z,16.27
2022-08-05T23:02:53.828Z,11.82
2022-08-05T23:05:23.527Z,11.85
2022-08-05T23:07:53.552Z,14.73
2022-08-05T23:10:23.541Z,11.10
2022-08-05T23:12:55.807Z,11.32
2022-08-05T23:15:26.936Z,12.10
2022-08-05T23:18:00.627Z,12.20
2022-08-05T23:20:32.095Z,11.30
2022-08-05T23:23:03.634Z,11.98
2022-08-05T23:25:52.670Z,12.57
2022-08-05T23:28:29.104Z,12.40
2022-08-05T23:31:15.942Z,12.20
2022-08-05T23:34:03.828Z,12.93
2022-08-05T23:39:17.161Z,12.48
2022-08-05T23:41:52.770Z,12.85
2022-08-05T23:44:27.998Z,13.02
2022-08-05T23:47:02.555Z,12.90
2022-08-05T23:49:43.580Z,12.88
2022-08-05T23:52:31.638Z,12.75
2022-08-05T23:55:02.276Z,13.43
2022-08-05T23:57:34.111Z,12.95
